createdAt,value
2018-02-16T00:01:17.987Z,2.90
2018-02-16T00:04:19.886Z,2.70
2018-02-16T00:07:21.784Z,2.50
2018-02-16T00:10:23.770Z,2.33
2018-02-16T00:13:25.675Z,2.80
2018-02-16T00:16:27.674Z,2.80
2018-02-16T00:19:29.671Z,2.80
2018-02-16T00:22:31.672Z,2.70
2018-02-16T00:25:33.668Z,2.87
2018-02-16T00:28:35.561Z,2.73
2018-02-16T00:31:37.488Z,2.70
2018-02-16T00:34:40.070Z,2.58
2018-02-16T00:37:42.986Z,2.87
2018-02-16T00:40:44.891Z,2.70
2018-02-16T00:43:46.883Z,2.37
2018-02-16T00:46:48.879Z,2.77
2018-02-16T00:49:50.775Z,2.50
2018-02-16T00:52:52.772Z,2.70
2018-02-16T00:55:54.671Z,2.70
2018-02-16T00:58:56.992Z,2.57
2018-02-16T01:01:58.980Z,3.03
2018-02-16T01:05:01.034Z,2.93
2018-02-16T01:08:02.963Z,2.50
2018-02-16T01:11:04.959Z,2.83
2018-02-16T01:14:06.855Z,2.93
2018-02-16T01:17:08.750Z,2.83
2018-02-16T01:20:10.634Z,2.83
2018-02-16T01:23:12.543Z,2.80
2018-02-16T01:26:14.451Z,2.87
2018-02-16T01:29:16.443Z,2.80
2018-02-16T01:32:18.422Z,2.33
2018-02-16T01:35:21.346Z,2.67
2018-02-16T01:38:23.242Z,2.97
2018-02-16T01:41:25.140Z,2.77
2018-02-16T01:44:28.055Z,2.63
2018-02-16T01:47:29.951Z,2.97
2018-02-16T01:50:32.019Z,2.50
2018-02-16T01:53:33.954Z,3.00
2018-02-16T01:56:35.990Z,2.70
2018-02-16T01:59:39.894Z,2.60
2018-02-16T02:02:42.032Z,2.50
2018-02-16T02:05:43.991Z,2.80
2018-02-16T02:08:46.090Z,2.50
2018-02-16T02:11:47.996Z,2.80
2018-02-16T02:14:49.990Z,2.50
2018-02-16T02:17:51.907Z,2.70
2018-02-16T02:20:53.884Z,2.60
2018-02-16T02:23:56.014Z,2.40
2018-02-16T02:26:57.983Z,2.30
2018-02-16T02:29:59.972Z,2.40
2018-02-16T02:33:01.868Z,2.50
2018-02-16T02:36:03.868Z,2.40
2018-02-16T02:39:05.770Z,2.73
2018-02-16T02:42:07.655Z,2.60
2018-02-16T02:45:09.550Z,2.50
2018-02-16T02:48:11.460Z,2.50
2018-02-16T02:51:13.343Z,2.70
2018-02-16T02:54:15.344Z,2.60
2018-02-16T02:57:18.268Z,2.40
2018-02-16T03:00:20.357Z,2.30
2018-02-16T03:03:22.255Z,2.50
2018-02-16T03:06:24.164Z,2.37
2018-02-16T03:09:26.152Z,2.37
2018-02-16T03:12:28.143Z,2.10
2018-02-16T03:15:30.045Z,2.50
2018-02-16T03:18:31.938Z,2.67
2018-02-16T03:21:33.831Z,2.40
2018-02-16T03:24:35.730Z,2.40
2018-02-16T03:27:37.635Z,2.50
2018-02-16T03:30:39.523Z,2.40
2018-02-16T03:33:41.510Z,2.50
2018-02-16T03:36:43.411Z,2.60
2018-02-16T03:39:45.312Z,2.40
2018-02-16T03:42:47.320Z,2.40
2018-02-16T03:45:49.333Z,2.33
2018-02-16T03:48:51.303Z,2.10
2018-02-16T03:51:53.302Z,2.20
2018-02-16T03:54:55.299Z,2.23
2018-02-16T03:57:57.296Z,2.27
2018-02-16T04:00:59.190Z,2.57
2018-02-16T04:04:01.083Z,2.07
2018-02-16T04:07:04.009Z,2.30
2018-02-16T04:10:06.004Z,2.40
2018-02-16T04:13:07.899Z,2.30
2018-02-16T04:16:10.083Z,2.03
2018-02-16T04:19:11.996Z,2.27
2018-02-16T04:22:13.891Z,2.10
2018-02-16T04:25:15.784Z,2.33
2018-02-16T04:28:17.666Z,2.40
2018-02-16T04:31:19.555Z,2.50
2018-02-16T04:34:21.447Z,2.40
2018-02-16T04:37:23.340Z,2.00
2018-02-16T04:40:25.235Z,2.20
2018-02-16T04:43:27.114Z,2.30
2018-02-16T04:46:30.084Z,1.90
2018-02-16T04:49:31.980Z,2.20
2018-02-16T04:52:33.879Z,2.10
2018-02-16T04:55:35.766Z,2.10
2018-02-16T04:58:37.650Z,2.20
2018-02-16T05:01:39.563Z,2.20
2018-02-16T05:04:41.445Z,2.00
2018-02-16T05:07:43.348Z,2.00
2018-02-16T05:10:45.236Z,2.03
2018-02-16T05:13:47.130Z,2.00
2018-02-16T05:16:49.016Z,2.00
2018-02-16T05:19:50.903Z,2.07
2018-02-16T05:22:52.803Z,2.00
2018-02-16T05:25:54.689Z,2.00
2018-02-16T05:28:57.644Z,1.90
2018-02-16T05:31:59.538Z,1.77
2018-02-16T05:35:03.508Z,2.35
2018-02-16T05:38:05.482Z,2.00
2018-02-16T05:41:07.371Z,2.00
2018-02-16T05:44:09.292Z,2.03
2018-02-16T05:47:11.182Z,2.20
2018-02-16T05:50:13.079Z,2.27
2018-02-16T05:53:14.958Z,1.90
2018-02-16T05:56:16.847Z,2.10
2018-02-16T05:59:19.784Z,1.97
2018-02-16T06:02:21.671Z,2.17
2018-02-16T06:05:23.562Z,1.83
2018-02-16T06:08:25.459Z,1.97
2018-02-16T06:11:27.362Z,1.80
2018-02-16T06:14:29.247Z,2.00
2018-02-16T06:17:33.156Z,2.00
2018-02-16T06:20:35.047Z,1.70
2018-02-16T06:23:38.934Z,2.00
2018-02-16T06:26:40.831Z,2.00
2018-02-16T06:29:42.719Z,2.00
2018-02-16T06:32:44.603Z,1.93
2018-02-16T06:35:48.563Z,1.90
2018-02-16T06:38:50.455Z,1.90
2018-02-16T06:41:52.356Z,1.77
2018-02-16T06:44:55.279Z,1.80
2018-02-16T06:47:58.203Z,1.87
2018-02-16T06:51:00.203Z,2.20
2018-02-16T06:54:02.083Z,1.70
2018-02-16T06:57:04.075Z,1.87
2018-02-16T07:00:05.883Z,2.03
2018-02-16T07:03:07.763Z,1.77
2018-02-16T07:06:09.651Z,2.20
2018-02-16T07:09:11.536Z,1.90
2018-02-16T07:12:14.008Z,2.20
2018-02-16T07:15:15.900Z,2.10
2018-02-16T07:18:17.778Z,2.23
2018-02-16T07:21:20.696Z,1.80
2018-02-16T07:24:22.587Z,2.10
2018-02-16T07:27:25.467Z,2.17
2018-02-16T07:30:29.450Z,2.00
2018-02-16T07:33:31.379Z,2.20
2018-02-16T07:36:33.267Z,5.83
2018-02-16T07:39:35.170Z,9.07
2018-02-16T07:42:37.148Z,9.80
2018-02-16T07:45:39.045Z,10.90
2018-02-16T07:48:41.035Z,10.60
2018-02-16T07:51:43.036Z,11.10
2018-02-16T07:54:45.032Z,10.97
2018-02-16T07:57:47.070Z,9.60
2018-02-16T08:00:49.077Z,8.63
2018-02-16T08:03:51.251Z,8.18
2018-02-16T08:06:53.234Z,7.85
2018-02-16T08:09:55.224Z,7.73
2018-02-16T08:12:57.124Z,7.90
2018-02-16T08:15:59.119Z,7.30
2018-02-16T08:19:01.109Z,7.58
2018-02-16T08:22:03.006Z,6.77
2018-02-16T08:25:04.912Z,6.67
2018-02-16T08:28:06.905Z,6.40
2018-02-16T08:31:08.794Z,6.45
2018-02-16T08:34:10.691Z,6.40
2018-02-16T08:37:12.588Z,6.20
2018-02-16T08:40:14.483Z,5.67
2018-02-16T08:43:17.415Z,6.20
2018-02-16T08:46:19.399Z,5.30
2018-02-16T08:49:22.344Z,5.67
2018-02-16T08:52:24.315Z,5.10
2018-02-16T08:55:26.198Z,5.47
2018-02-16T08:58:28.095Z,5.50
2018-02-16T09:01:29.982Z,5.23
2018-02-16T09:04:31.874Z,5.30
2018-02-16T09:07:33.771Z,4.83
2018-02-16T09:10:35.660Z,4.90
2018-02-16T09:13:37.659Z,4.93
2018-02-16T09:16:39.551Z,4.97
2018-02-16T09:19:41.431Z,4.70
2018-02-16T09:22:43.324Z,4.55
2018-02-16T09:25:45.223Z,4.90
2018-02-16T09:28:47.116Z,5.20
2018-02-16T09:31:49.628Z,4.73
2018-02-16T09:34:51.510Z,5.08
2018-02-16T09:37:53.444Z,4.40
2018-02-16T09:40:55.343Z,4.43
2018-02-16T09:43:57.426Z,4.50
2018-02-16T09:47:00.318Z,4.40
2018-02-16T09:50:03.245Z,4.13
2018-02-16T09:53:05.145Z,4.63
2018-02-16T09:56:07.133Z,3.80
2018-02-16T09:59:09.027Z,4.03
2018-02-16T10:02:11.032Z,3.60
2018-02-16T10:05:13.014Z,3.92
2018-02-16T10:08:15.031Z,3.90
2018-02-16T10:11:17.016Z,4.07
2018-02-16T10:14:19.048Z,3.77
2018-02-16T10:17:21.038Z,3.70
2018-02-16T10:20:23.016Z,3.23
2018-02-16T10:23:24.911Z,3.80
2018-02-16T10:26:26.806Z,3.60
2018-02-16T10:29:28.735Z,3.60
2018-02-16T10:32:30.694Z,3.57
2018-02-16T10:35:32.614Z,3.50
2018-02-16T10:38:34.596Z,3.43
2018-02-16T10:41:36.596Z,3.30
2018-02-16T10:44:39.552Z,3.80
2018-02-16T10:47:41.518Z,3.62
2018-02-16T10:50:43.508Z,3.15
2018-02-16T10:53:45.398Z,3.50
2018-02-16T10:56:47.319Z,3.40
2018-02-16T10:59:49.323Z,3.70
2018-02-16T11:02:55.475Z,3.40
2018-02-16T11:05:57.392Z,3.70
2018-02-16T11:09:03.559Z,3.37
2018-02-16T11:12:08.985Z,3.60
2018-02-16T11:15:10.966Z,3.73
2018-02-16T11:18:16.975Z,3.30
2018-02-16T11:21:19.011Z,3.40
2018-02-16T11:24:20.959Z,3.20
2018-02-16T11:27:22.854Z,2.87
2018-02-16T11:30:24.750Z,2.87
2018-02-16T11:33:26.751Z,3.27
2018-02-16T11:36:28.641Z,3.07
2018-02-16T11:39:30.607Z,3.97
2018-02-16T11:42:33.507Z,3.50
2018-02-16T11:45:35.450Z,2.97
2018-02-16T11:48:37.360Z,2.87
2018-02-16T11:51:39.347Z,3.00
2018-02-16T11:54:42.279Z,2.70
2018-02-16T11:57:44.263Z,2.60
2018-02-16T12:00:46.171Z,3.00
2018-02-16T12:03:48.156Z,2.73
2018-02-16T12:06:50.064Z,3.23
2018-02-16T17:31:00.726Z,38.83
2018-02-16T17:46:34.913Z,22.07
